Time;durP1;ratioP1;P1;durP2;ratioP2;P2;SDS_P1;SDS_P2;PMS_P1;PMS_P2;Temp;Humidity;BMP_temperature;BMP_pressure;BME280_temperature;BME280_humidity;BME280_pressure;Samples;Min_cycle;Max_cycle;Signal;HPM_P1;HPM_P2
2021/12/16 00:01:56;;;;;;;17.10;11.77;;;;;;;;;;4994768;28;20433;-89
2021/12/16 00:07:24;;;;;;;20.03;12.67;;;;;;;;;;4993568;28;20438;-86
2021/12/16 00:09:58;;;;;;;18.27;12.30;;;;;;;;;;4991145;28;20496;-86
2021/12/16 00:32:04;;;;;;;19.37;13.20;;;3.80;99.90;;;;;;4953845;28;20496;-86
2021/12/16 00:34:33;;;;;;;16.13;12.10;;;3.90;99.90;;;;;;4989251;28;20449;-87
2021/12/16 00:37:01;;;;;;;18.80;12.83;;;3.90;99.90;;;;;;4992473;28;20800;-88
2021/12/16 00:39:30;;;;;;;16.83;11.93;;;3.60;99.90;;;;;;4993575;28;20457;-86
2021/12/16 00:42:06;;;;;;;16.93;11.83;;;3.80;99.90;;;;;;4986354;28;20790;-86
2021/12/16 00:47:48;;;;;;;17.43;11.60;;;3.80;99.90;;;;;;4963041;28;20437;-86
2021/12/16 00:54:08;;;;;;;18.77;11.83;;;3.90;99.90;;;;;;4993389;28;20454;-86
2021/12/16 00:56:00;;;;;;;18.03;12.53;;;;;;;;;;4993055;28;20441;-86
2021/12/16 00:58:32;;;;;;;19.90;12.87;;;3.70;99.90;;;;;;4993462;28;20457;-87
2021/12/16 01:01:06;;;;;;;21.10;12.87;;;3.90;99.90;;;;;;4993291;28;20500;-86
2021/12/16 01:03:42;;;;;;;17.67;12.10;;;3.80;99.90;;;;;;4993348;28;20457;-86
2021/12/16 01:06:35;;;;;;;16.80;10.90;;;;;;;;;;4985957;28;20508;-86
2021/12/16 01:34:10;;;;;;;17.93;11.50;;;;;;;;;;4996437;28;20847;-86
2021/12/16 01:50:29;;;;;;;18.27;12.67;;;3.60;99.90;;;;;;4993554;28;20442;-87
2021/12/16 01:55:44;;;;;;;18.93;12.77;;;4.90;99.90;;;;;;4996212;28;20449;-87
2021/12/16 01:58:15;;;;;;;18.37;11.90;;;3.60;99.90;;;;;;4996107;28;20453;-86
2021/12/16 02:00:58;;;;;;;21.73;13.67;;;3.70;99.90;;;;;;4996129;28;20852;-86
2021/12/16 02:03:38;;;;;;;21.37;12.40;;;3.50;99.90;;;;;;4995014;28;20910;-87
2021/12/16 02:06:12;;;;;;;19.63;12.20;;;;;;;;;;4994872;28;20449;-87
2021/12/16 02:08:41;;;;;;;19.23;12.73;;;3.70;99.90;;;;;;4992878;28;20516;-87
2021/12/16 02:36:00;;;;;;;19.13;11.23;;;;;;;;;;4992267;28;20786;-87
2021/12/16 02:38:32;;;;;;;18.30;10.90;;;3.70;99.90;;;;;;4994830;28;20449;-85
2021/12/16 02:41:00;;;;;;;17.30;10.90;;;3.60;99.90;;;;;;4995826;28;20512;-88
2021/12/16 02:43:55;;;;;;;17.47;10.90;;;;;;;;;;4992755;28;20433;-87
2021/12/16 02:49:07;;;;;;;19.47;11.67;;;;;;;;;;4995770;28;20552;-89
2021/12/16 02:51:34;;;;;;;19.77;12.53;;;;;;;;;;5014075;28;20944;-89
2021/12/16 02:54:06;;;;;;;19.20;12.00;;;3.70;99.90;;;;;;5015038;28;20460;-87
2021/12/16 02:56:34;;;;;;;15.83;11.10;;;3.60;99.90;;;;;;5015995;28;20461;-88
2021/12/16 02:59:02;;;;;;;17.70;11.53;;;3.60;99.90;;;;;;5016541;28;20445;-89
2021/12/16 03:01:33;;;;;;;17.40;12.70;;;3.70;99.90;;;;;;5017355;28;20456;-88
2021/12/16 03:04:03;;;;;;;17.40;11.40;;;3.60;99.90;;;;;;5015355;28;20451;-87
2021/12/16 03:06:32;;;;;;;18.43;12.17;;;;;;;;;;5014584;28;20449;-87
2021/12/16 03:09:00;;;;;;;17.23;11.80;;;3.20;99.90;;;;;;5015003;28;20906;-86
2021/12/16 03:11:39;;;;;;;20.13;12.60;;;3.50;99.90;;;;;;5014473;28;20459;-86
2021/12/16 03:14:23;;;;;;;17.83;11.33;;;3.70;99.90;;;;;;5014446;28;20874;-88
2021/12/16 03:17:05;;;;;;;21.77;12.83;;;3.70;99.90;;;;;;5014377;28;20445;-87
2021/12/16 03:19:44;;;;;;;21.60;13.60;;;3.70;99.90;;;;;;5014374;28;20468;-87
2021/12/16 03:22:20;;;;;;;21.47;13.27;;;3.90;99.90;;;;;;5013213;28;20511;-86
2021/12/16 03:25:14;;;;;;;20.27;12.27;;;;;;;;;;5014306;28;20440;-86
2021/12/16 03:28:15;;;;;;;20.37;12.70;;;3.80;99.90;;;;;;5014184;28;20464;-85
2021/12/16 03:33:49;;;;;;;21.87;12.00;;;;;;;;;;5000336;28;20523;-86
2021/12/16 03:36:27;;;;;;;19.40;13.00;;;;;;;;;;5013077;28;20813;-87
2021/12/16 03:38:58;;;;;;;21.43;14.10;;;3.70;99.90;;;;;;5012913;28;20555;-88
2021/12/16 03:41:25;;;;;;;22.40;13.47;;;3.90;99.90;;;;;;5014518;28;20937;-90
2021/12/16 03:43:57;;;;;;;20.83;12.33;;;3.60;99.90;;;;;;5010602;28;20499;-90
2021/12/16 03:46:27;;;;;;;20.43;11.90;;;3.70;99.90;;;;;;5009781;28;20473;-89
2021/12/16 03:49:06;;;;;;;21.40;13.70;;;4.00;99.90;;;;;;5011682;28;20485;-88
2021/12/16 03:51:36;;;;;;;18.63;11.50;;;3.50;99.90;;;;;;5012951;28;20444;-88
2021/12/16 03:54:10;;;;;;;21.80;14.00;;;3.70;99.90;;;;;;5014208;28;20819;-91
2021/12/16 03:56:41;;;;;;;19.63;11.80;;;3.50;99.90;;;;;;5009817;28;20460;-90
2021/12/16 03:59:11;;;;;;;17.83;11.20;;;3.70;99.90;;;;;;5014060;28;20500;-87
2021/12/16 04:01:39;;;;;;;20.87;12.50;;;;;;;;;;5011201;28;20960;-87
2021/12/16 04:04:06;;;;;;;17.60;11.37;;;3.70;99.90;;;;;;5014229;28;20452;-90
2021/12/16 04:06:36;;;;;;;20.07;11.73;;;3.70;99.90;;;;;;5013308;28;20456;-87
2021/12/16 04:09:05;;;;;;;20.93;12.23;;;3.50;99.90;;;;;;5006065;28;20485;-90
2021/12/16 04:11:39;;;;;;;21.77;12.00;;;3.70;99.90;;;;;;5013966;28;20453;-87
2021/12/16 04:14:07;;;;;;;21.90;13.20;;;3.60;99.90;;;;;;5011782;28;20465;-89
2021/12/16 04:16:39;;;;;;;18.70;12.40;;;3.90;99.90;;;;;;5014191;28;20449;-89
2021/12/16 04:19:11;;;;;;;21.07;13.00;;;3.80;99.90;;;;;;5009007;28;20452;-90
2021/12/16 04:21:39;;;;;;;17.73;11.37;;;;;;;;;;4975563;28;20468;-89
2021/12/16 04:24:07;;;;;;;18.13;11.60;;;4.00;99.90;;;;;;5011444;28;20445;-89
2021/12/16 04:26:37;;;;;;;21.77;12.47;;;3.90;99.90;;;;;;5011339;28;20453;-88
2021/12/16 04:29:05;;;;;;;19.93;12.77;;;;;;;;;;5014327;28;20492;-89
2021/12/16 04:31:32;;;;;;;19.70;11.97;;;3.80;99.90;;;;;;5014473;28;20527;-91
2021/12/16 04:34:02;;;;;;;20.23;12.10;;;3.80;99.90;;;;;;5010060;28;20445;-87
2021/12/16 04:36:29;;;;;;;20.77;12.53;;;;;;;;;;5014472;28;21000;-93
2021/12/16 04:38:57;;;;;;;18.97;12.50;;;;;;;;;;5014824;28;21007;-91
2021/12/16 04:41:26;;;;;;;21.87;13.30;;;;;;;;;;5014494;28;20456;-90
2021/12/16 04:43:56;;;;;;;25.60;14.27;;;3.90;99.90;;;;;;5014447;28;20527;-92
2021/12/16 04:46:27;;;;;;;28.80;14.60;;;3.90;99.90;;;;;;5014429;28;20484;-90
2021/12/16 04:48:57;;;;;;;22.23;13.93;;;3.80;99.90;;;;;;5014061;28;20484;-89
2021/12/16 04:51:27;;;;;;;22.17;13.53;;;3.90;99.90;;;;;;5005605;28;20460;-90
2021/12/16 04:53:55;;;;;;;25.43;14.20;;;;;;;;;;5009561;28;20440;-89
2021/12/16 04:56:22;;;;;;;22.90;13.73;;;;;;;;;;5017980;28;20457;-92
2021/12/16 04:58:52;;;;;;;20.73;12.43;;;3.80;99.90;;;;;;5017810;28;20453;-91
2021/12/16 05:01:19;;;;;;;22.87;13.13;;;;;;;;;;5017722;28;20448;-87
2021/12/16 05:03:47;;;;;;;25.93;14.40;;;3.80;99.90;;;;;;5014913;28;20457;-89
2021/12/16 05:06:14;;;;;;;22.20;14.13;;;3.80;99.90;;;;;;5012782;28;20445;-88
2021/12/16 05:08:43;;;;;;;24.43;14.03;;;3.80;99.90;;;;;;5017340;28;20449;-88
2021/12/16 05:11:13;;;;;;;21.90;13.27;;;3.70;99.90;;;;;;5017562;28;20441;-92
2021/12/16 05:13:41;;;;;;;28.10;14.73;;;3.80;99.90;;;;;;5013255;28;20522;-91
2021/12/16 05:16:08;;;;;;;28.70;14.37;;;3.90;99.90;;;;;;5015271;28;20457;-92
2021/12/16 05:18:38;;;;;;;24.97;14.20;;;3.80;99.90;;;;;;5016259;28;20445;-91
2021/12/16 05:21:07;;;;;;;25.80;14.23;;;3.80;99.90;;;;;;5017294;28;20460;-89
2021/12/16 05:26:21;;;;;;;24.27;13.37;;;3.90;99.90;;;;;;5016514;28;20495;-88
2021/12/16 05:28:52;;;;;;;23.70;12.63;;;3.60;99.90;;;;;;4975308;28;21013;-87
2021/12/16 05:31:21;;;;;;;24.10;14.00;;;3.70;99.90;;;;;;4975457;28;20958;-87
2021/12/16 05:33:49;;;;;;;23.70;13.50;;;3.60;99.90;;;;;;4975236;28;20473;-88
2021/12/16 05:36:17;;;;;;;29.07;14.03;;;3.70;99.90;;;;;;4971382;28;20463;-87
2021/12/16 05:38:44;;;;;;;21.63;13.37;;;3.60;99.90;;;;;;4973915;28;20450;-87
2021/12/16 05:41:14;;;;;;;24.83;14.00;;;3.70;99.90;;;;;;4975270;28;20473;-87
2021/12/16 05:43:43;;;;;;;29.07;15.33;;;3.60;99.90;;;;;;4975135;28;20447;-88
2021/12/16 05:46:13;;;;;;;29.63;15.97;;;3.90;99.90;;;;;;4979294;28;20523;-87
2021/12/16 05:48:43;;;;;;;22.67;13.43;;;3.80;99.90;;;;;;5016425;28;20506;-90
2021/12/16 05:51:15;;;;;;;22.40;13.67;;;3.80;99.90;;;;;;5015027;28;20492;-87
2021/12/16 05:53:45;;;;;;;23.53;13.43;;;3.80;99.90;;;;;;5013335;28;20440;-87
2021/12/16 05:56:12;;;;;;;25.13;13.70;;;3.70;99.90;;;;;;5016197;28;20459;-87
2021/12/16 05:58:39;;;;;;;24.47;14.00;;;3.80;99.90;;;;;;5012000;28;20804;-88
2021/12/16 06:01:10;;;;;;;20.53;11.50;;;3.70;99.90;;;;;;5016091;28;20456;-87
2021/12/16 06:03:38;;;;;;;25.97;13.60;;;;;;;;;;5016559;28;20437;-86
2021/12/16 06:06:05;;;;;;;28.67;13.67;;;3.50;99.90;;;;;;5016457;28;20440;-87
2021/12/16 06:08:32;;;;;;;25.73;12.87;;;;;;;;;;5017906;28;20452;-90
2021/12/16 06:11:27;;;;;;;28.50;15.07;;;3.90;99.90;;;;;;5016833;28;20496;-87
2021/12/16 06:14:03;;;;;;;46.10;24.20;;;3.70;99.90;;;;;;5016440;28;20453;-88
2021/12/16 06:22:40;;;;;;;29.17;14.70;;;3.90;99.90;;;;;;5015533;28;20437;-87
2021/12/16 06:27:58;;;;;;;37.70;19.70;;;3.80;99.90;;;;;;5015881;28;20547;-88
2021/12/16 06:30:29;;;;;;;32.07;17.33;;;3.70;99.90;;;;;;5012798;28;20985;-88
2021/12/16 06:32:58;;;;;;;27.93;13.83;;;3.80;99.90;;;;;;5015292;28;20448;-88
2021/12/16 06:35:25;;;;;;;28.80;15.43;;;;;;;;;;5012360;28;20940;-88
2021/12/16 06:37:53;;;;;;;25.00;14.70;;;;;;;;;;5011243;28;20449;-87
2021/12/16 06:40:21;;;;;;;28.77;15.80;;;3.80;99.90;;;;;;5012487;28;20456;-90
2021/12/16 06:42:49;;;;;;;25.43;13.80;;;;;;;;;;5015061;28;20452;-89
2021/12/16 06:45:21;;;;;;;24.57;14.20;;;;;;;;;;5015193;28;20498;-88
2021/12/16 06:47:53;;;;;;;24.40;13.90;;;;;;;;;;5010298;28;20451;-87
2021/12/16 06:50:30;;;;;;;24.90;14.13;;;3.90;99.90;;;;;;5012628;28;20492;-88
2021/12/16 06:53:01;;;;;;;25.90;14.70;;;;;;;;;;5011373;28;20460;-89
2021/12/16 06:55:37;;;;;;;28.20;14.10;;;3.80;99.90;;;;;;5014813;28;20485;-88
2021/12/16 06:58:14;;;;;;;26.90;14.23;;;3.70;99.90;;;;;;5010118;28;20948;-89
2021/12/16 07:00:45;;;;;;;23.50;13.33;;;4.10;99.90;;;;;;5014788;28;20951;-90
2021/12/16 07:03:19;;;;;;;21.00;12.60;;;;;;;;;;5014723;28;20457;-89
2021/12/16 07:05:52;;;;;;;24.43;13.23;;;4.00;99.90;;;;;;5014846;28;20822;-91
2021/12/16 07:08:20;;;;;;;21.23;12.83;;;4.00;99.90;;;;;;5013543;28;20456;-87
2021/12/16 07:10:49;;;;;;;24.03;12.70;;;3.90;99.90;;;;;;5014448;28;21087;-90
2021/12/16 07:13:18;;;;;;;23.10;13.07;;;3.90;99.90;;;;;;5011777;28;20449;-87
2021/12/16 07:15:46;;;;;;;28.50;16.07;;;3.90;99.90;;;;;;5011627;28;20452;-87
2021/12/16 07:18:14;;;;;;;19.27;11.27;;;;;;;;;;5014626;28;20801;-86
2021/12/16 07:20:41;;;;;;;20.63;12.00;;;;;;;;;;5014429;28;20453;-88
2021/12/16 07:23:11;;;;;;;22.73;13.83;;;4.30;99.90;;;;;;5010284;28;20464;-87
2021/12/16 07:25:39;;;;;;;19.73;12.53;;;4.10;99.90;;;;;;5009390;28;20473;-89
2021/12/16 07:28:07;;;;;;;21.47;11.57;;;4.60;99.90;;;;;;5009115;28;20452;-88
2021/12/16 07:30:37;;;;;;;22.27;13.60;;;4.00;99.90;;;;;;5014561;28;20528;-89
2021/12/16 07:33:05;;;;;;;19.80;12.30;;;4.00;99.90;;;;;;5014336;28;20479;-87
2021/12/16 07:35:33;;;;;;;20.87;11.80;;;3.90;99.90;;;;;;5014138;28;20460;-88
2021/12/16 07:38:04;;;;;;;21.40;12.53;;;4.30;99.90;;;;;;5013452;28;20464;-90
2021/12/16 07:40:35;;;;;;;18.60;11.93;;;4.00;99.90;;;;;;5014768;28;20916;-87
2021/12/16 07:43:25;;;;;;;21.20;12.33;;;4.00;99.90;;;;;;5011528;28;20452;-88
2021/12/16 07:45:54;;;;;;;25.20;12.67;;;4.10;99.90;;;;;;5014052;28;21066;-88
2021/12/16 07:48:24;;;;;;;21.10;12.60;;;4.10;99.90;;;;;;5014136;28;20457;-87
2021/12/16 07:50:55;;;;;;;22.20;12.20;;;4.10;99.90;;;;;;5010927;28;20894;-86
2021/12/16 07:53:22;;;;;;;19.37;11.47;;;3.90;99.90;;;;;;5013048;28;20467;-87
2021/12/16 07:55:50;;;;;;;23.30;13.70;;;3.80;99.90;;;;;;5011339;28;20448;-87
2021/12/16 07:58:19;;;;;;;19.87;12.53;;;;;;;;;;5013897;28;20467;-87
2021/12/16 08:00:48;;;;;;;20.67;11.70;;;4.30;99.90;;;;;;5014311;28;20952;-87
2021/12/16 08:03:19;;;;;;;20.93;12.10;;;4.30;99.90;;;;;;5014318;28;20543;-89
2021/12/16 08:05:53;;;;;;;20.50;11.87;;;4.50;99.90;;;;;;5011905;28;20506;-87
2021/12/16 08:08:20;;;;;;;21.50;12.03;;;;;;;;;;5011480;28;20805;-87
2021/12/16 08:10:48;;;;;;;21.23;11.47;;;;;;;;;;5014438;28;20503;-89
2021/12/16 08:13:16;;;;;;;18.03;11.87;;;3.90;99.90;;;;;;5015672;28;20445;-87
2021/12/16 08:15:44;;;;;;;19.07;10.80;;;4.20;99.90;;;;;;5015116;28;20449;-86
2021/12/16 08:18:11;;;;;;;17.97;11.73;;;4.20;99.90;;;;;;5015348;28;20459;-87
2021/12/16 08:20:40;;;;;;;19.97;12.23;;;5.20;99.90;;;;;;5014466;28;20475;-86
2021/12/16 08:23:07;;;;;;;21.50;12.03;;;4.50;99.90;;;;;;5012605;28;20963;-87
2021/12/16 08:25:35;;;;;;;19.93;11.40;;;4.60;99.90;;;;;;5014384;28;20468;-87
2021/12/16 08:28:04;;;;;;;19.43;11.70;;;4.40;99.90;;;;;;5014438;28;20460;-87
2021/12/16 08:30:37;;;;;;;22.70;12.50;;;4.30;99.90;;;;;;5013320;28;20488;-88
2021/12/16 08:33:08;;;;;;;20.03;12.03;;;;;;;;;;5008466;28;20449;-86
2021/12/16 08:35:35;;;;;;;20.73;12.20;;;;;;;;;;5015505;28;20488;-91
2021/12/16 08:38:02;;;;;;;18.20;11.30;;;;;;;;;;5013031;28;20444;-88
2021/12/16 08:40:30;;;;;;;17.10;11.20;;;4.30;99.90;;;;;;5013742;28;20453;-91
2021/12/16 08:42:58;;;;;;;21.50;12.53;;;;;;;;;;5016292;28;20455;-87
2021/12/16 08:45:29;;;;;;;19.07;12.17;;;4.30;99.90;;;;;;5013369;28;20480;-95
2021/12/16 08:47:59;;;;;;;20.70;11.23;;;4.70;99.90;;;;;;5012885;28;20460;-94
2021/12/16 08:50:29;;;;;;;18.90;11.30;;;4.60;99.90;;;;;;5008935;28;20507;-89
2021/12/16 08:52:58;;;;;;;18.80;12.10;;;;;;;;;;5011409;28;20469;-88
2021/12/16 08:55:26;;;;;;;16.27;10.67;;;;;;;;;;5012506;28;20548;-88
2021/12/16 08:57:56;;;;;;;17.47;11.03;;;;;;;;;;5015140;28;20440;-89
2021/12/16 09:00:26;;;;;;;18.67;10.53;;;4.90;99.90;;;;;;5013328;28;20467;-91
2021/12/16 09:02:53;;;;;;;18.37;11.07;;;;;;;;;;5010275;28;20448;-87
2021/12/16 09:05:23;;;;;;;16.20;10.60;;;4.70;99.90;;;;;;5013338;28;20463;-89
2021/12/16 09:07:50;;;;;;;17.50;11.07;;;;;;;;;;5012750;28;20459;-88
2021/12/16 09:10:21;;;;;;;17.40;10.50;;;5.10;99.90;;;;;;5013388;28;20851;-88
2021/12/16 09:12:53;;;;;;;16.70;10.27;;;5.00;99.90;;;;;;5014038;28;20452;-88
2021/12/16 09:15:23;;;;;;;18.87;10.57;;;5.00;99.90;;;;;;5014109;28;20448;-88
2021/12/16 09:17:50;;;;;;;16.43;9.93;;;;;;;;;;5014666;28;20465;-87
2021/12/16 09:20:17;;;;;;;17.10;10.13;;;;;;;;;;5014023;28;20452;-88
2021/12/16 09:22:47;;;;;;;21.90;12.77;;;5.00;99.90;;;;;;5007785;28;20444;-88
2021/12/16 09:25:14;;;;;;;20.20;11.57;;;;;;;;;;5012779;28;20472;-89
2021/12/16 09:27:42;;;;;;;18.27;11.80;;;5.80;99.90;;;;;;5013154;28;20460;-87
2021/12/16 09:30:12;;;;;;;17.47;11.30;;;5.30;99.90;;;;;;5010293;28;20449;-89
2021/12/16 09:32:39;;;;;;;19.57;11.40;;;5.20;99.90;;;;;;5013427;28;20456;-89
2021/12/16 09:35:09;;;;;;;21.33;12.90;;;5.40;99.90;;;;;;5012755;28;20453;-88
2021/12/16 09:37:36;;;;;;;24.40;12.30;;;;;;;;;;5011754;28;20967;-89
2021/12/16 09:40:07;;;;;;;22.60;12.00;;;5.40;99.90;;;;;;5009937;28;20468;-89
2021/12/16 09:42:35;;;;;;;20.70;13.17;;;;;;;;;;5015444;28;20460;-90
2021/12/16 09:45:03;;;;;;;18.90;11.23;;;5.20;99.90;;;;;;5015934;28;20534;-88
2021/12/16 09:47:30;;;;;;;19.20;11.90;;;;;;;;;;5016202;28;20448;-88
2021/12/16 09:49:58;;;;;;;19.40;11.67;;;;;;;;;;5013860;28;20502;-88
2021/12/16 09:52:25;;;;;;;21.10;12.47;;;;;;;;;;5015506;28;20500;-88
2021/12/16 09:54:52;;;;;;;19.77;11.87;;;;;;;;;;5016134;28;20456;-89
2021/12/16 09:57:21;;;;;;;21.73;11.60;;;5.70;99.90;;;;;;5016247;28;20464;-88
2021/12/16 09:59:48;;;;;;;20.70;11.90;;;;;;;;;;5015938;28;20457;-89
2021/12/16 10:02:19;;;;;;;20.27;12.57;;;5.60;99.90;;;;;;5013409;28;20464;-89
2021/12/16 10:04:47;;;;;;;20.27;11.27;;;5.80;99.90;;;;;;5015951;28;20464;-89
2021/12/16 10:07:18;;;;;;;22.57;12.97;;;5.80;99.90;;;;;;5014955;28;20449;-88
2021/12/16 10:09:47;;;;;;;17.47;12.03;;;5.80;99.90;;;;;;5015971;28;20945;-89
2021/12/16 10:12:18;;;;;;;18.80;12.10;;;6.50;99.90;;;;;;5010143;28;20496;-88
2021/12/16 10:15:03;;;;;;;22.33;12.57;;;6.00;99.90;;;;;;5015681;28;20867;-89
2021/12/16 10:17:33;;;;;;;20.80;12.60;;;7.70;99.90;;;;;;5015856;28;20453;-88
2021/12/16 10:20:09;;;;;;;20.43;12.87;;;5.80;99.90;;;;;;5010624;28;20448;-90
2021/12/16 10:22:40;;;;;;;20.57;12.13;;;5.80;99.90;;;;;;5012606;28;20448;-88
2021/12/16 10:25:24;;;;;;;18.40;11.57;;;6.20;99.90;;;;;;4994995;28;20484;-92
2021/12/16 10:28:02;;;;;;;19.30;12.90;;;5.80;99.90;;;;;;4994075;28;20818;-88
2021/12/16 10:30:49;;;;;;;19.40;12.07;;;5.80;99.90;;;;;;4992842;28;20448;-88
2021/12/16 10:33:24;;;;;;;18.67;11.80;;;5.80;99.90;;;;;;4988962;28;21022;-89
2021/12/16 10:35:59;;;;;;;22.03;12.63;;;5.70;99.90;;;;;;4992157;28;20540;-90
2021/12/16 10:38:26;;;;;;;22.47;12.63;;;;;;;;;;4989793;28;20500;-92
2021/12/16 10:40:56;;;;;;;19.77;13.20;;;5.90;99.90;;;;;;4996124;28;20811;-88
2021/12/16 10:43:32;;;;;;;19.63;11.87;;;5.80;99.90;;;;;;4996222;28;20450;-93
2021/12/16 10:46:05;;;;;;;20.47;11.70;;;6.00;99.90;;;;;;4995912;28;20477;-91
2021/12/16 10:48:39;;;;;;;21.93;11.80;;;5.80;99.90;;;;;;4996646;28;20454;-89
2021/12/16 10:51:22;;;;;;;18.47;12.07;;;5.70;99.90;;;;;;4996268;28;20583;-88
2021/12/16 10:54:13;;;;;;;18.27;11.63;;;5.60;99.90;;;;;;4994018;28;20450;-88
2021/12/16 10:56:50;;;;;;;18.80;11.53;;;5.50;99.90;;;;;;4993991;28;20461;-88
2021/12/16 10:59:20;;;;;;;22.60;13.67;;;5.80;99.90;;;;;;4996518;28;20453;-93
2021/12/16 11:02:19;;;;;;;19.20;11.50;;;5.80;99.90;;;;;;4997270;28;20462;-92
2021/12/16 11:04:51;;;;;;;18.47;12.30;;;5.90;99.90;;;;;;4996831;28;20542;-88
2021/12/16 11:07:26;;;;;;;19.17;11.60;;;6.30;99.90;;;;;;4995013;28;20458;-88
2021/12/16 11:10:02;;;;;;;21.17;11.27;;;6.10;99.90;;;;;;4991928;28;20445;-90
2021/12/16 11:12:39;;;;;;;20.43;11.50;;;7.90;99.90;;;;;;4987286;28;20818;-88
2021/12/16 11:15:11;;;;;;;25.87;13.27;;;6.30;99.90;;;;;;4995056;28;20457;-88
2021/12/16 11:17:43;;;;;;;18.13;11.73;;;5.90;99.90;;;;;;4991800;28;20453;-89
2021/12/16 11:20:16;;;;;;;19.00;11.77;;;6.30;99.90;;;;;;4995062;28;20472;-88
2021/12/16 11:22:44;;;;;;;19.93;12.53;;;;;;;;;;4994268;28;20458;-87
2021/12/16 11:25:23;;;;;;;18.57;12.67;;;5.80;99.90;;;;;;4994652;28;20474;-88
2021/12/16 11:27:54;;;;;;;17.83;11.80;;;6.20;99.90;;;;;;4995225;28;20449;-88
2021/12/16 11:30:30;;;;;;;21.47;11.57;;;6.20;99.90;;;;;;4994513;28;20462;-87
2021/12/16 11:33:11;;;;;;;19.40;12.33;;;5.80;99.90;;;;;;4994779;28;20497;-88
2021/12/16 11:35:46;;;;;;;20.40;12.03;;;6.00;99.90;;;;;;4995398;28;20453;-88
2021/12/16 11:38:21;;;;;;;18.53;11.63;;;6.20;99.90;;;;;;4993695;28;20442;-90
2021/12/16 11:41:08;;;;;;;17.60;11.30;;;6.10;99.90;;;;;;4998733;28;20449;-87
2021/12/16 11:43:39;;;;;;;16.77;11.00;;;6.20;99.90;;;;;;4995740;28;20442;-90
2021/12/16 11:46:12;;;;;;;18.47;11.03;;;6.20;99.90;;;;;;4995175;28;20485;-87
2021/12/16 11:48:42;;;;;;;16.80;11.20;;;6.40;99.90;;;;;;4991910;28;20438;-95
2021/12/16 11:51:11;;;;;;;22.17;12.00;;;6.80;99.90;;;;;;4994235;28;21055;-88
2021/12/16 11:53:44;;;;;;;19.43;11.03;;;6.40;99.90;;;;;;4995244;28;20819;-88
2021/12/16 11:56:12;;;;;;;15.50;10.43;;;6.10;99.90;;;;;;4993348;28;20796;-87
2021/12/16 11:58:41;;;;;;;18.73;11.10;;;6.40;99.90;;;;;;4995581;28;20454;-88
2021/12/16 12:01:19;;;;;;;19.33;10.37;;;6.30;99.90;;;;;;4991812;28;20526;-87
2021/12/16 12:03:48;;;;;;;19.03;11.80;;;6.30;99.90;;;;;;4993452;28;20445;-88
2021/12/16 12:06:24;;;;;;;20.90;12.03;;;6.10;99.90;;;;;;4992977;28;20450;-88
2021/12/16 12:08:54;;;;;;;20.50;11.60;;;6.30;99.90;;;;;;4993984;28;20449;-88
2021/12/16 12:11:25;;;;;;;18.33;11.67;;;6.30;99.90;;;;;;4989145;28;20485;-88
2021/12/16 12:13:56;;;;;;;18.30;11.57;;;6.30;99.90;;;;;;4994054;28;20460;-90
2021/12/16 12:16:28;;;;;;;19.93;12.67;;;6.30;99.90;;;;;;4991961;28;20449;-88
2021/12/16 12:19:00;;;;;;;18.80;11.40;;;6.60;99.90;;;;;;4991657;28;20454;-89
2021/12/16 12:21:34;;;;;;;20.73;13.10;;;6.40;99.90;;;;;;4994564;28;20462;-90
2021/12/16 12:24:05;;;;;;;18.60;12.40;;;6.30;99.90;;;;;;4996165;28;20484;-89
2021/12/16 12:26:38;;;;;;;17.00;11.07;;;6.50;99.90;;;;;;4995132;28;20457;-90
2021/12/16 12:29:09;;;;;;;21.90;12.60;;;6.40;99.90;;;;;;4995200;28;20442;-89
2021/12/16 12:31:40;;;;;;;18.33;11.73;;;6.60;99.90;;;;;;4992147;28;20532;-90
2021/12/16 12:34:08;;;;;;;20.10;12.00;;;6.60;99.90;;;;;;4998032;28;20976;-89
2021/12/16 12:36:36;;;;;;;19.60;12.60;;;;;;;;;;4997519;28;21044;-89
2021/12/16 12:39:06;;;;;;;20.90;11.10;;;6.30;99.90;;;;;;5003837;28;20474;-90
2021/12/16 12:41:33;;;;;;;16.00;10.60;;;;;;;;;;5003845;28;20449;-90
2021/12/16 12:44:04;;;;;;;16.60;11.10;;;;;;;;;;4994116;28;20445;-89
2021/12/16 12:46:32;;;;;;;19.57;10.67;;;;;;;;;;4994784;28;20477;-91
2021/12/16 12:49:02;;;;;;;24.23;12.00;;;6.40;99.90;;;;;;4999108;28;20456;-91
2021/12/16 12:51:37;;;;;;;18.37;11.20;;;6.40;99.90;;;;;;5001699;28;20473;-90
2021/12/16 12:54:17;;;;;;;17.50;10.43;;;6.50;99.90;;;;;;5001361;28;20821;-88
2021/12/16 12:56:44;;;;;;;19.23;12.50;;;;;;;;;;4995754;28;20945;-89
2021/12/16 12:59:15;;;;;;;16.80;11.03;;;6.40;99.90;;;;;;4993989;28;20445;-91
2021/12/16 13:01:47;;;;;;;16.20;10.80;;;6.40;99.90;;;;;;4997116;28;20860;-90
2021/12/16 13:04:17;;;;;;;15.37;10.43;;;6.60;99.90;;;;;;4998030;28;20453;-91
2021/12/16 13:07:00;;;;;;;19.10;11.17;;;6.60;99.90;;;;;;4993122;28;20442;-91
2021/12/16 13:09:36;;;;;;;17.13;10.07;;;6.80;99.90;;;;;;4993240;28;20497;-93
2021/12/16 13:12:32;;;;;;;19.40;9.70;;;6.80;99.90;;;;;;4996613;28;20486;-92
2021/12/16 13:15:08;;;;;;;15.50;10.50;;;6.90;99.90;;;;;;4993944;28;20484;-91
2021/12/16 13:23:34;;;;;;;14.87;10.43;;;6.90;99.90;;;;;;5001112;28;20435;-89
2021/12/16 13:26:27;;;;;;;21.63;11.93;;;8.00;99.90;;;;;;4999708;28;20433;-90
2021/12/16 13:29:07;;;;;;;17.40;10.33;;;6.80;99.90;;;;;;5000278;28;20458;-92
2021/12/16 13:31:46;;;;;;;16.50;10.73;;;6.80;99.90;;;;;;4996616;28;20443;-90
2021/12/16 13:34:35;;;;;;;17.27;10.27;;;6.70;99.90;;;;;;4999800;28;20445;-92
2021/12/16 13:37:14;;;;;;;19.40;10.57;;;6.70;99.90;;;;;;4998051;28;20456;-90
2021/12/16 13:39:49;;;;;;;15.67;10.80;;;6.90;99.90;;;;;;5003820;28;20470;-88
2021/12/16 13:42:18;;;;;;;17.73;11.23;;;6.70;99.90;;;;;;5013901;28;20448;-91
2021/12/16 13:44:56;;;;;;;16.57;10.80;;;6.70;99.90;;;;;;5004166;28;20492;-92
2021/12/16 13:47:41;;;;;;;15.60;10.77;;;6.50;99.90;;;;;;5006667;28;20441;-92
2021/12/16 14:01:54;;;;;;;16.60;10.80;;;6.70;99.90;;;;;;5006544;28;20482;-90
2021/12/16 14:04:54;;;;;;;16.17;11.80;;;7.00;99.90;;;;;;5005547;28;20454;-91
2021/12/16 14:07:54;;;;;;;18.50;10.30;;;6.80;99.90;;;;;;5001509;28;20462;-91
2021/12/16 14:10:28;;;;;;;20.50;12.63;;;6.70;99.90;;;;;;4993448;28;20450;-90
2021/12/16 14:16:21;;;;;;;18.03;13.37;;;6.70;99.90;;;;;;5002346;28;20414;-90
2021/12/16 14:39:43;;;;;;;15.27;10.37;;;6.70;99.90;;;;;;4990800;28;20976;-90
2021/12/16 14:42:28;;;;;;;17.37;11.90;;;5.80;99.90;;;;;;5004576;28;20461;-92
2021/12/16 14:48:07;;;;;;;16.93;11.57;;;6.70;99.90;;;;;;4982423;28;20459;-92
2021/12/16 14:50:37;;;;;;;18.10;10.90;;;6.50;99.90;;;;;;4981124;28;20534;-93
2021/12/16 14:53:17;;;;;;;21.33;13.60;;;6.60;99.90;;;;;;4925541;28;20482;-90
2021/12/16 14:55:47;;;;;;;30.47;13.77;;;;;;;;;;4976739;28;20474;-93
2021/12/16 14:58:15;;;;;;;23.20;13.17;;;6.40;99.90;;;;;;4982716;28;20522;-91
2021/12/16 15:00:46;;;;;;;16.63;11.63;;;6.40;99.90;;;;;;4977057;28;20449;-89
2021/12/16 15:03:18;;;;;;;19.77;12.47;;;6.30;99.90;;;;;;4980127;28;20446;-90
2021/12/16 15:05:48;;;;;;;19.97;12.37;;;6.40;99.90;;;;;;4917975;29;20878;-92
2021/12/16 15:08:24;;;;;;;18.87;12.20;;;6.30;99.90;;;;;;4920170;29;20853;-89
2021/12/16 15:10:52;;;;;;;23.90;13.30;;;6.30;99.90;;;;;;4916940;29;20452;-94
2021/12/16 15:13:25;;;;;;;18.27;12.60;;;;;;;;;;4920673;29;20501;-92
2021/12/16 15:16:23;;;;;;;19.27;12.27;;;;;;;;;;4920731;29;20484;-91
2021/12/16 15:38:37;;;;;;;27.50;13.33;;;5.80;99.90;;;;;;4978797;28;20498;-89
2021/12/16 15:43:56;;;;;;;24.17;14.00;;;;;;;;;;4985178;28;20490;-92
2021/12/16 15:46:23;;;;;;;22.80;13.90;;;5.50;99.90;;;;;;4991870;28;20921;-91
2021/12/16 15:48:52;;;;;;;28.43;14.03;;;5.50;99.90;;;;;;4993912;28;20470;-89
2021/12/16 15:51:24;;;;;;;18.97;11.70;;;5.20;99.90;;;;;;4990889;28;20449;-90
2021/12/16 15:53:55;;;;;;;17.40;11.90;;;5.10;99.90;;;;;;4993227;28;20489;-89
2021/12/16 15:56:26;;;;;;;17.63;9.97;;;4.90;99.90;;;;;;4992087;28;20811;-88
2021/12/16 15:59:01;;;;;;;19.27;12.60;;;5.00;99.90;;;;;;4997282;28;20972;-87
2021/12/16 16:01:31;;;;;;;16.27;10.73;;;4.90;99.90;;;;;;4962529;28;20449;-89
2021/12/16 16:03:59;;;;;;;17.57;11.47;;;4.70;99.90;;;;;;4997406;28;20460;-87
2021/12/16 16:06:28;;;;;;;20.63;12.77;;;4.60;99.90;;;;;;4996047;28;20454;-92
2021/12/16 16:08:58;;;;;;;19.90;11.30;;;4.50;99.90;;;;;;4994931;28;20450;-92
2021/12/16 16:11:28;;;;;;;21.53;12.37;;;4.50;99.90;;;;;;4995174;28;20450;-88
2021/12/16 16:14:00;;;;;;;26.07;11.63;;;4.30;99.90;;;;;;4994655;28;20505;-89
2021/12/16 16:16:31;;;;;;;122.80;64.57;;;4.20;99.90;;;;;;4992134;28;20463;-90
2021/12/16 16:19:00;;;;;;;19.63;13.27;;;;;;;;;;4994628;28;20470;-90
2021/12/16 16:21:31;;;;;;;23.93;14.60;;;4.40;99.90;;;;;;4993638;28;20488;-91
2021/12/16 16:24:04;;;;;;;34.33;22.20;;;4.60;99.90;;;;;;4994836;28;20461;-90